Flight Track Log - Related Links

Times and Time Zones

All times are in EDT time to prevent confusion due to time zone crossing. See the RPA3321 flight status page for this flight to view local times or setup timezone preferences in your user account.

Time Position Orientation Groundspeed Altitude Reporting Facility
EDT Latitude Longitude Course Direction KTS MPH feet Rate Location/Type
Mon 05:41:53 AM 42.7297 -73.8081 119° Southeast 147 169 1,600  Level Boston Center
Mon 05:43:06 AM 42.7125 -73.8586 245° Southwest 229 264 3,700 2,314 Climbing Boston Center
Mon 05:44:00 AM 42.5153 -74.0095 171° South  Level Estimated
Mon 05:44:13 AM 42.7761 -73.9392 317° Northwest 291 335 7,000  Level Boston Center
Mon 05:45:00 AM 42.4373 -74.0783 180° South  Level Estimated
Mon 05:45:13 AM 42.8186 -74.0308 302° West 297 342 10,600  Level Boston Center
Mon 05:46:00 AM 42.3593 -74.1470 172° South  Level Estimated
Mon 05:46:13 AM 42.7903 -74.1150 245° Southwest 233 268 13,300  Level Boston Center
Mon 05:47:00 AM 42.3139 -74.0371 119° Southeast  Level FlightAware Approximate
Mon 05:47:13 AM 42.6989 -74.0900 169° South 212 244 16,300  Level Boston Center
Mon 05:48:13 AM 42.6119 -74.0481 160° South 295 339 18,800 2,500 Climbing Boston Center
Mon 05:49:13 AM 42.5189 -73.9978 158° South 316 364 21,300 2,300 Climbing Boston Center
Mon 05:50:13 AM 42.4236 -73.9475 159° South 355 409 23,400 1,950 Climbing Boston Center
Mon 05:51:13 AM 42.3197 -73.9228 170° South 370 426 25,200 1,300 Climbing Boston Center
Mon 05:52:13 AM 42.2153 -73.9567 194° South 370 426 26,000 400 Climbing Boston Center
Mon 05:53:13 AM 42.1106 -73.9933 195° South 376 433 26,000  Level Boston Center
Mon 05:54:13 AM 42.0036 -74.0297 194° South 384 442 26,000  Level Boston Center
Mon 05:55:13 AM 41.8992 -74.0606 192° South 389 448 26,000  Level Boston Center
Mon 05:57:04 AM 41.7222 -74.1144 193° South 376 433 26,000  Level New York Center
Mon 05:58:04 AM 41.6153 -74.1450 192° South 381 438 26,000  Level New York Center
Mon 05:59:06 AM 41.5058 -74.1811 194° South 376 433 26,000  Level New York Center
Mon 06:00:06 AM 41.4031 -74.2119 193° South 381 438 26,000  Level New York Center
Mon 06:01:04 AM 41.2939 -74.2422 192° South 386 444 26,000  Level New York Center
Mon 06:02:05 AM 41.1908 -74.2753 194° South 391 450 26,000  Level New York Center
Mon 06:03:06 AM 41.0878 -74.3086 194° South 391 450 26,000  Level New York Center
Mon 06:04:04 AM 40.9847 -74.3389 193° South 391 450 26,000  Level New York Center
Mon 06:05:06 AM 40.8817 -74.3719 194° South 386 444 26,000  Level New York Center
Mon 06:06:04 AM 40.7844 -74.4161 199° South 380 437 26,000 -203 Level New York Center
Mon 06:07:04 AM 40.7211 -74.5142 230° Southwest 353 406 25,600 -850 Descending New York Center
Mon 06:08:04 AM 40.6614 -74.6175 233° Southwest 353 406 24,300 -1,300 Descending New York Center
Mon 06:09:04 AM 40.5978 -74.7178 230° Southwest 358 412 23,000 -650 Descending New York Center
Mon 06:10:04 AM 40.5339 -74.8178 230° Southwest 363 418 23,000  Level New York Center
Mon 06:11:06 AM 40.4661 -74.9094 226° Southwest 363 418 23,000  Level New York Center
Mon 06:12:04 AM 40.3981 -75.0033 226° Southwest 358 412 23,000 -504 Level New York Center
Mon 06:13:05 AM 40.3303 -75.0972 227° Southwest 358 412 22,000 -492 Descending New York Center
Mon 06:14:06 AM 40.2703 -75.1942 231° Southwest 358 412 22,000  Level New York Center
Mon 06:15:07 AM 40.2083 -75.2908 230° Southwest 347 399 22,000  Level New York Center
Mon 06:16:05 AM 40.1464 -75.3844 229° Southwest 347 399 22,000  Level New York Center
Mon 06:17:04 AM 40.0864 -75.4756 229° Southwest 347 399 22,000  Level New York Center
Mon 06:18:05 AM 40.0308 -75.5611 230° Southwest 347 399 22,000  Level New York Center
Mon 06:19:05 AM 39.9686 -75.6517 228° Southwest 347 399 22,000  Level New York Center
Mon 06:20:04 AM 39.9019 -75.7525 229° Southwest 360 414 22,000  Level New York Center
Mon 06:21:04 AM 39.8350 -75.8533 229° Southwest 368 423 22,000 -545 Level New York Center
Mon 06:22:05 AM 39.7661 -75.9564 229° Southwest 373 429 20,900 -1,731 Descending New York Center
Mon 06:24:32 AM 39.6000 -76.2167 230° Southwest 353 406 16,000 -1,855 Descending Potomac TRACON
Mon 06:25:32 AM 39.5167 -76.3000 218° Southwest 348 400 14,500 -1,571 Descending Potomac TRACON
Mon 06:26:38 AM 39.4500 -76.3833 224° Southwest 348 400 12,700 -1,500 Descending Potomac TRACON
Mon 06:27:32 AM 39.3667 -76.4500 212° Southwest 341 392 11,500 -1,222 Descending Potomac TRACON
Mon 06:28:26 AM 39.3167 -76.5167 226° Southwest 325 374 10,500 -750 Descending Potomac TRACON
Mon 06:29:32 AM 39.2333 -76.5833 212° Southwest 277 319 10,000 -263 Descending Potomac TRACON
Mon 06:30:20 AM 39.2000 -76.6333 229° Southwest 281 323 10,000  Level Potomac TRACON
Mon 06:31:20 AM 39.1333 -76.7000 218° Southwest 278 320 10,000  Level Potomac TRACON
Mon 06:32:14 AM 39.0833 -76.7667 226° Southwest 281 323 10,000 -316 Level Potomac TRACON
Mon 06:33:14 AM 39.0333 -76.8500 232° Southwest 282 325 9,400 -1,150 Descending Potomac TRACON
Mon 06:34:14 AM 39.0333 -76.9500 270° West 274 315 7,700 -1,632 Descending Potomac TRACON
Mon 06:35:08 AM 39.0333 -77.0333 270° West 254 292 6,300 -1,000 Descending Potomac TRACON
Mon 06:36:08 AM 39.0500 -77.1167 284° West 249 287 5,800 -550 Descending Potomac TRACON
Mon 06:37:08 AM 39.0500 -77.1667 270° West 190 219 5,200 -1,050 Descending Potomac TRACON
Mon 06:38:08 AM 39.0167 -77.2000 218° Southwest 158 182 3,700 -1,158 Descending Potomac TRACON
Mon 06:39:02 AM 38.9833 -77.1667 142° Southeast 165 190 3,000 -632 Descending Potomac TRACON
Mon 06:40:02 AM 38.9500 -77.1333 142° Southeast 163 188 2,500 -650 Descending Potomac TRACON
Mon 06:41:02 AM 38.9167 -77.1000 142° Southeast 144 166 1,700 -800 Descending Potomac TRACON

Login

Don't have an account? Register now (free) for customized features, flight alerts, and more!